Archival Weather

Granbury Rgnl

Granbury, Texas (KGDJ)

Report from: Monday, January 29, 2024 2:35 PM UTC
Current time: Tuesday, June 18, 2024 1:09 PM UTC

Current weather – Weather history – Daily summaries
Weather forecast

Temperature2.9°C (37.2°F)
Dew point1.5°C (34.7°F)
Winds Calm
Visibility10 mi. (16.1 km)
Clouds Sky clear
Altimeter30.35 in.Hg (1028 mB)
Relative humidity90 %
Density altitude-1,860 ft. (-567 m)
Remarks Fully automated report
Automated weather observing station with precipitation discriminator
Flight conditions Visual Meteorological Conditions
Raw dataKGDJ 291435Z AUTO 00000KT 10SM CLR 03/02 A3035 RMK AO2 T00290015
An error has occurred. This application may no longer respond until reloaded. Reload 🗙